createdAt,value
2018-06-11T00:00:59.784Z,1005.34
2018-06-11T00:01:59.772Z,1005.38
2018-06-11T00:02:59.762Z,1005.38
2018-06-11T00:03:59.799Z,1005.35
2018-06-11T00:04:59.739Z,1005.33
2018-06-11T00:05:59.728Z,1005.39
2018-06-11T00:06:59.715Z,1005.39
2018-06-11T00:07:59.703Z,1005.38
2018-06-11T00:08:59.689Z,1005.4
2018-06-11T00:09:59.681Z,1005.36
2018-06-11T00:10:59.669Z,1005.37
2018-06-11T00:11:59.656Z,1005.33
2018-06-11T00:12:59.643Z,1005.37
2018-06-11T00:13:59.635Z,1005.37
2018-06-11T00:14:59.625Z,1005.41
2018-06-11T00:15:59.609Z,1005.39
2018-06-11T00:16:59.597Z,1005.39
2018-06-11T00:17:59.584Z,1005.36
2018-06-11T00:18:59.628Z,1005.39
2018-06-11T00:19:59.566Z,1005.34
2018-06-11T00:20:59.550Z,1005.32
2018-06-11T00:21:59.538Z,1005.36
2018-06-11T00:22:59.566Z,1005.4
2018-06-11T00:23:59.515Z,1005.41
2018-06-11T00:24:59.503Z,1005.4
2018-06-11T00:25:59.492Z,1005.4
2018-06-11T00:26:59.479Z,1005.38
2018-06-11T00:27:59.467Z,1005.31
2018-06-11T00:28:59.455Z,1005.29
2018-06-11T00:29:59.444Z,1005.26
2018-06-11T00:30:59.430Z,1005.29
2018-06-11T00:31:59.420Z,1005.31
2018-06-11T00:32:59.407Z,1005.31
2018-06-11T00:33:59.395Z,1005.3
2018-06-11T00:34:59.385Z,1005.29
2018-06-11T00:35:59.377Z,1005.28
2018-06-11T00:36:59.359Z,1005.34
2018-06-11T00:37:59.347Z,1005.31
2018-06-11T00:38:59.336Z,1005.29
2018-06-11T00:39:59.325Z,1005.3
2018-06-11T00:40:59.312Z,1005.3
2018-06-11T00:41:59.300Z,1005.32
2018-06-11T00:42:59.288Z,1005.3
2018-06-11T00:43:59.276Z,1005.34
2018-06-11T00:44:59.265Z,1005.32
2018-06-11T00:45:59.252Z,1005.33
2018-06-11T00:46:59.240Z,1005.39
2018-06-11T00:47:59.230Z,1005.42
2018-06-11T00:48:59.218Z,1005.46
2018-06-11T00:49:59.205Z,1005.48
2018-06-11T00:50:59.193Z,1005.46
2018-06-11T00:51:59.384Z,1005.46
2018-06-11T00:52:59.167Z,1005.44
2018-06-11T00:53:59.156Z,1005.44
2018-06-11T00:54:59.144Z,1005.36
2018-06-11T00:55:59.207Z,1005.43
2018-06-11T00:56:59.120Z,1005.46
2018-06-11T00:57:59.108Z,1005.43
2018-06-11T00:58:59.094Z,1005.44
2018-06-11T00:59:59.084Z,1005.44
2018-06-11T01:00:59.077Z,1005.44
2018-06-11T01:01:59.060Z,1005.44
2018-06-11T01:02:59.048Z,1005.45
2018-06-11T01:03:59.034Z,1005.45
2018-06-11T01:04:59.021Z,1005.42
2018-06-11T01:05:59.011Z,1005.45
2018-06-11T01:06:59.000Z,1005.39
2018-06-11T01:07:58.985Z,1005.43
2018-06-11T01:08:58.975Z,1005.46
2018-06-11T01:09:58.962Z,1005.46
2018-06-11T01:10:58.965Z,1005.46
2018-06-11T01:11:58.937Z,1005.41
2018-06-11T01:12:58.925Z,1005.44
2018-06-11T01:13:58.915Z,1005.39
2018-06-11T01:14:58.901Z,1005.37
2018-06-11T01:15:58.894Z,1005.39
2018-06-11T01:16:58.877Z,1005.4
2018-06-11T01:17:58.867Z,1005.42
2018-06-11T01:18:58.852Z,1005.41
2018-06-11T01:19:58.840Z,1005.39
2018-06-11T01:20:58.830Z,1005.36
2018-06-11T01:21:58.815Z,1005.41
2018-06-11T01:22:58.804Z,1005.34
2018-06-11T01:23:58.792Z,1005.39
2018-06-11T01:24:58.780Z,1005.39
2018-06-11T01:25:58.765Z,1005.37
2018-06-11T01:26:58.755Z,1005.36
2018-06-11T01:27:58.742Z,1005.36
2018-06-11T01:28:58.733Z,1005.34
2018-06-11T01:29:58.718Z,1005.36
2018-06-11T01:30:58.705Z,1005.33
2018-06-11T01:31:58.695Z,1005.34
2018-06-11T01:32:58.689Z,1005.32
2018-06-11T01:33:58.672Z,1005.35
2018-06-11T01:34:58.657Z,1005.34
2018-06-11T01:35:58.646Z,1005.32
2018-06-11T01:36:58.634Z,1005.31
2018-06-11T01:37:58.620Z,1005.28
2018-06-11T01:38:58.608Z,1005.29
2018-06-11T01:39:58.596Z,1005.27
2018-06-11T01:40:58.587Z,1005.22
2018-06-11T01:41:58.569Z,1005.23
2018-06-11T01:42:58.558Z,1005.22
2018-06-11T01:43:58.545Z,1005.19
2018-06-11T01:44:58.533Z,1005.15
2018-06-11T01:45:58.521Z,1005.12
2018-06-11T01:46:58.509Z,1005.06
2018-06-11T01:47:58.498Z,1005.07
2018-06-11T01:48:58.486Z,1005.06
2018-06-11T01:49:58.475Z,1005.07
2018-06-11T01:50:58.459Z,1005.09
2018-06-11T01:51:58.448Z,1005.1
2018-06-11T01:52:58.435Z,1005.09
2018-06-11T01:53:58.423Z,1005.01
2018-06-11T01:54:58.410Z,1005
2018-06-11T01:55:58.399Z,1005.01
2018-06-11T01:56:58.386Z,1004.99
2018-06-11T01:57:58.372Z,1004.95
2018-06-11T01:58:58.359Z,1004.98
2018-06-11T01:59:58.346Z,1004.93
2018-06-11T02:00:58.338Z,1004.93
2018-06-11T02:01:58.323Z,1004.89
2018-06-11T02:02:58.310Z,1004.92
2018-06-11T02:03:58.299Z,1004.9
2018-06-11T02:04:58.287Z,1004.86
2018-06-11T02:05:58.271Z,1004.88
2018-06-11T02:06:58.263Z,1004.89
2018-06-11T02:07:58.248Z,1004.9
2018-06-11T02:08:58.240Z,1004.92
2018-06-11T02:09:58.222Z,1004.91
2018-06-11T02:10:58.210Z,1004.92
2018-06-11T02:11:58.198Z,1004.94
2018-06-11T02:12:58.185Z,1004.91
2018-06-11T02:13:58.176Z,1004.9
2018-06-11T02:14:58.159Z,1004.91
2018-06-11T02:15:58.150Z,1004.91
2018-06-11T02:16:58.136Z,1004.85
2018-06-11T02:17:58.122Z,1004.88
2018-06-11T02:18:58.114Z,1004.87
2018-06-11T02:19:58.112Z,1004.9
2018-06-11T02:20:58.084Z,1004.85
2018-06-11T02:21:58.125Z,1004.81
2018-06-11T02:22:58.059Z,1004.79
2018-06-11T02:23:58.046Z,1004.82
2018-06-11T02:24:58.033Z,1004.79
2018-06-11T02:25:58.021Z,1004.78
2018-06-11T02:26:58.012Z,1004.82
2018-06-11T02:27:57.995Z,1004.83
2018-06-11T02:28:57.984Z,1004.87
2018-06-11T02:29:57.972Z,1004.86
2018-06-11T02:30:57.972Z,1004.88
2018-06-11T02:31:57.951Z,1004.9
2018-06-11T02:32:57.933Z,1004.9
2018-06-11T02:33:57.919Z,1004.89
2018-06-11T02:34:57.904Z,1004.94
2018-06-11T02:35:57.895Z,1004.95
2018-06-11T02:36:57.881Z,1004.94
2018-06-11T02:37:57.872Z,1004.94
2018-06-11T02:38:57.856Z,1004.94
2018-06-11T02:39:57.854Z,1004.91
2018-06-11T02:40:57.878Z,1004.86
2018-06-11T02:41:57.819Z,1004.84
2018-06-11T02:42:57.808Z,1004.88
2018-06-11T02:43:57.793Z,1004.85
2018-06-11T02:44:57.779Z,1004.86
2018-06-11T02:45:57.784Z,1004.88
2018-06-11T02:46:57.777Z,1004.88
2018-06-11T02:47:57.740Z,1004.87
2018-06-11T02:48:57.726Z,1004.83
2018-06-11T02:49:57.713Z,1004.86
2018-06-11T02:50:57.700Z,1004.86
2018-06-11T02:51:57.689Z,1004.93
2018-06-11T02:52:57.676Z,1004.92
2018-06-11T02:53:57.673Z,1004.97
2018-06-11T02:54:57.650Z,1004.99
2018-06-11T02:55:57.640Z,1004.97
2018-06-11T02:56:57.626Z,1004.9
2018-06-11T02:57:57.611Z,1004.89
2018-06-11T02:58:57.599Z,1004.88
2018-06-11T02:59:57.591Z,1004.83
2018-06-11T03:00:57.575Z,1004.81
2018-06-11T03:01:57.568Z,1004.78
2018-06-11T03:02:57.549Z,1004.79
2018-06-11T03:03:57.537Z,1004.71
2018-06-11T03:04:57.524Z,1004.76
2018-06-11T03:05:57.514Z,1004.73
2018-06-11T03:06:57.500Z,1004.73
2018-06-11T03:07:57.488Z,1004.69
2018-06-11T03:08:57.474Z,1004.71
2018-06-11T03:09:57.460Z,1004.7
2018-06-11T03:10:57.451Z,1004.69
2018-06-11T03:11:57.436Z,1004.68
2018-06-11T03:12:57.426Z,1004.62
2018-06-11T03:13:57.415Z,1004.62
2018-06-11T03:14:57.404Z,1004.61
2018-06-11T03:15:57.387Z,1004.6
2018-06-11T03:16:57.377Z,1004.57
2018-06-11T03:17:57.361Z,1004.58
2018-06-11T03:18:57.349Z,1004.55
2018-06-11T03:19:57.336Z,1004.55
2018-06-11T03:20:57.326Z,1004.49
2018-06-11T03:21:57.317Z,1004.53
2018-06-11T03:22:57.298Z,1004.56
2018-06-11T03:23:57.285Z,1004.59
2018-06-11T03:24:57.278Z,1004.57
2018-06-11T03:25:57.259Z,1004.59
2018-06-11T03:26:57.253Z,1004.57
2018-06-11T03:27:57.237Z,1004.57
2018-06-11T03:28:57.225Z,1004.56
2018-06-11T03:29:57.214Z,1004.6
2018-06-11T03:30:57.209Z,1004.59
2018-06-11T03:31:57.204Z,1004.61
2018-06-11T03:32:57.178Z,1004.65
2018-06-11T03:33:57.162Z,1004.69
2018-06-11T03:34:57.149Z,1004.65
2018-06-11T03:35:57.139Z,1004.64
2018-06-11T03:36:57.127Z,1004.6
2018-06-11T03:37:57.114Z,1004.61
2018-06-11T03:38:57.100Z,1004.65
2018-06-11T03:39:57.090Z,1004.64
2018-06-11T03:40:57.078Z,1004.71
2018-06-11T03:41:57.065Z,1004.76
2018-06-11T03:42:57.051Z,1004.74
2018-06-11T03:43:57.038Z,1004.8
2018-06-11T03:44:57.026Z,1004.77
2018-06-11T03:45:57.017Z,1004.79
2018-06-11T03:46:57.002Z,1004.78
2018-06-11T03:47:56.991Z,1004.8
2018-06-11T03:48:56.979Z,1004.83
2018-06-11T03:49:56.974Z,1004.81
2018-06-11T03:50:56.961Z,1004.81
2018-06-11T03:51:56.940Z,1004.83
2018-06-11T03:52:56.935Z,1004.84
2018-06-11T03:53:56.917Z,1004.85
2018-06-11T03:54:56.909Z,1004.89
2018-06-11T03:55:56.891Z,1004.91
2018-06-11T03:56:56.880Z,1004.92
2018-06-11T03:57:56.871Z,1004.89
2018-06-11T03:58:56.860Z,1004.91
2018-06-11T03:59:56.844Z,1004.89
2018-06-11T04:00:56.833Z,1004.86
2018-06-11T04:01:56.822Z,1004.87
2018-06-11T04:02:56.807Z,1004.89
2018-06-11T04:03:56.795Z,1004.93
2018-06-11T04:04:56.789Z,1004.93
2018-06-11T04:05:56.772Z,1004.93
2018-06-11T04:06:56.759Z,1004.9
2018-06-11T04:07:56.748Z,1004.93
2018-06-11T04:08:56.736Z,1004.95
2018-06-11T04:09:56.723Z,1004.94
2018-06-11T04:10:56.780Z,1004.93
2018-06-11T04:11:56.699Z,1004.95
2018-06-11T04:12:56.688Z,1004.95
2018-06-11T04:13:56.675Z,1004.99
2018-06-11T04:14:56.663Z,1004.98
2018-06-11T04:15:56.652Z,1005.02
2018-06-11T04:16:56.640Z,1005.07
2018-06-11T04:17:56.634Z,1005.11
2018-06-11T04:18:56.619Z,1005.09
2018-06-11T04:19:56.604Z,1005.13
2018-06-11T04:20:56.593Z,1005.19
2018-06-11T04:21:56.580Z,1005.17
2018-06-11T04:22:56.568Z,1005.15
2018-06-11T04:23:56.556Z,1005.14
2018-06-11T04:24:56.551Z,1005.18
2018-06-11T04:25:56.531Z,1005.16
2018-06-11T04:26:56.522Z,1005.16
2018-06-11T04:27:56.511Z,1005.13
2018-06-11T04:28:56.503Z,1005.15
2018-06-11T04:29:56.486Z,1005.12
2018-06-11T04:30:56.476Z,1005.11
2018-06-11T04:31:56.461Z,1005.07
2018-06-11T04:32:56.450Z,1005.15
2018-06-11T04:33:56.445Z,1005.15
2018-06-11T04:34:56.468Z,1005.17
2018-06-11T04:35:56.414Z,1005.13
2018-06-11T04:36:56.406Z,1005.14
2018-06-11T04:37:56.396Z,1005.09
2018-06-11T04:38:56.380Z,1005.1
2018-06-11T04:39:56.369Z,1005.08
2018-06-11T04:40:56.401Z,1005.09
2018-06-11T04:41:56.347Z,1005.11
2018-06-11T04:42:56.339Z,1005.08
2018-06-11T04:43:56.324Z,1005.08
2018-06-11T04:44:56.310Z,1005.06
2018-06-11T04:45:56.299Z,1005.1
2018-06-11T04:46:56.288Z,1005.1
2018-06-11T04:47:56.277Z,1005.09
2018-06-11T04:48:56.266Z,1005.1
2018-06-11T04:49:56.251Z,1005.11
2018-06-11T04:50:56.240Z,1005.08
2018-06-11T04:51:56.232Z,1005.04
2018-06-11T04:52:56.420Z,1005.03
2018-06-11T04:53:56.205Z,1005.01
2018-06-11T04:54:56.193Z,1004.97
2018-06-11T04:55:56.209Z,1004.97
2018-06-11T04:56:56.175Z,1004.97
2018-06-11T04:57:56.161Z,1004.94
2018-06-11T04:58:56.152Z,1004.87
2018-06-11T04:59:56.135Z,1004.9
2018-06-11T05:00:56.128Z,1004.91
2018-06-11T05:01:56.115Z,1004.96
2018-06-11T05:02:56.103Z,1004.93
2018-06-11T05:03:56.089Z,1004.94
2018-06-11T05:04:56.078Z,1004.91
2018-06-11T05:05:56.068Z,1004.86
2018-06-11T05:06:56.056Z,1004.84
2018-06-11T05:07:56.047Z,1004.85
2018-06-11T05:08:56.045Z,1004.81
2018-06-11T05:09:56.022Z,1004.87
2018-06-11T05:10:56.011Z,1004.84
2018-06-11T05:11:56.002Z,1004.89
2018-06-11T05:12:55.989Z,1004.88
2018-06-11T05:13:55.976Z,1004.88
2018-06-11T05:14:55.965Z,1004.88
2018-06-11T05:15:55.953Z,1004.88
2018-06-11T05:16:55.942Z,1004.9
2018-06-11T05:17:55.929Z,1004.93
2018-06-11T05:18:55.921Z,1004.92
2018-06-11T05:19:55.907Z,1004.89
2018-06-11T05:20:55.897Z,1004.86
2018-06-11T05:21:55.885Z,1004.82
2018-06-11T05:22:55.875Z,1004.82
2018-06-11T05:23:55.860Z,1004.87
2018-06-11T05:24:55.849Z,1004.9
2018-06-11T05:25:55.839Z,1004.9
2018-06-11T05:26:55.828Z,1004.95
2018-06-11T05:27:55.815Z,1004.95
2018-06-11T05:28:55.805Z,1004.93
2018-06-11T05:29:55.794Z,1004.95
2018-06-11T05:30:55.783Z,1004.95
2018-06-11T05:31:55.769Z,1004.98
2018-06-11T05:32:55.761Z,1004.96
2018-06-11T05:33:55.747Z,1004.99
2018-06-11T05:34:55.759Z,1004.99
2018-06-11T05:35:55.726Z,1004.98
2018-06-11T05:36:55.714Z,1005
2018-06-11T05:37:55.706Z,1005.04
2018-06-11T05:38:55.695Z,1005.07
2018-06-11T05:39:55.680Z,1005.02
2018-06-11T05:40:55.670Z,1005.03
2018-06-11T05:41:55.658Z,1005.05
2018-06-11T05:42:55.649Z,1005.02
2018-06-11T05:43:55.635Z,1005.06
2018-06-11T05:44:55.622Z,1005.06
2018-06-11T05:45:55.613Z,1005.07
2018-06-11T05:46:55.601Z,1005.14
2018-06-11T05:47:55.708Z,1005.12
2018-06-11T05:48:55.581Z,1005.24
2018-06-11T05:49:55.567Z,1005.22
2018-06-11T05:50:55.558Z,1005.22
2018-06-11T05:51:55.546Z,1005.29
2018-06-11T05:52:55.534Z,1005.31
2018-06-11T05:53:55.524Z,1005.35
2018-06-11T05:54:55.511Z,1005.35
2018-06-11T05:55:55.499Z,1005.36
2018-06-11T05:56:55.492Z,1005.39
2018-06-11T05:57:55.478Z,1005.45
2018-06-11T05:58:55.467Z,1005.43
2018-06-11T05:59:55.460Z,1005.44
2018-06-11T06:00:55.449Z,1005.41
2018-06-11T06:01:55.434Z,1005.43
2018-06-11T06:02:55.426Z,1005.49
2018-06-11T06:03:55.414Z,1005.48
2018-06-11T06:04:55.400Z,1005.42
2018-06-11T06:05:55.394Z,1005.43
2018-06-11T06:06:55.377Z,1005.41
2018-06-11T06:07:55.366Z,1005.36
2018-06-11T06:08:55.355Z,1005.32
2018-06-11T06:09:55.347Z,1005.32
2018-06-11T06:10:55.332Z,1005.31
2018-06-11T06:11:55.323Z,1005.35
2018-06-11T06:12:55.313Z,1005.32
2018-06-11T06:13:55.303Z,1005.35
2018-06-11T06:14:55.290Z,1005.37
2018-06-11T06:15:55.278Z,1005.39
2018-06-11T06:16:55.270Z,1005.4
2018-06-11T06:17:55.262Z,1005.49
2018-06-11T06:18:55.246Z,1005.48
2018-06-11T06:19:55.237Z,1005.46
2018-06-11T06:20:55.229Z,1005.49
2018-06-11T06:21:55.213Z,1005.5
2018-06-11T06:22:55.204Z,1005.53
2018-06-11T06:23:55.195Z,1005.57
2018-06-11T06:24:55.180Z,1005.57
2018-06-11T06:25:55.173Z,1005.59
2018-06-11T06:26:55.162Z,1005.6
2018-06-11T06:27:55.151Z,1005.58
2018-06-11T06:28:55.139Z,1005.56
2018-06-11T06:29:55.126Z,1005.55
2018-06-11T06:30:55.117Z,1005.57
2018-06-11T06:31:55.107Z,1005.54
2018-06-11T06:32:55.097Z,1005.55
2018-06-11T06:33:55.086Z,1005.55
2018-06-11T06:34:55.103Z,1005.53
2018-06-11T06:35:55.065Z,1005.53
2018-06-11T06:36:55.061Z,1005.56
2018-06-11T06:37:55.046Z,1005.55
2018-06-11T06:38:55.034Z,1005.54
2018-06-11T06:39:55.023Z,1005.54
2018-06-11T06:40:55.013Z,1005.52
2018-06-11T06:41:55.004Z,1005.53
2018-06-11T06:42:54.992Z,1005.52
2018-06-11T06:43:54.982Z,1005.51
2018-06-11T06:44:54.972Z,1005.53
2018-06-11T06:45:54.961Z,1005.53
2018-06-11T06:46:54.953Z,1005.57
2018-06-11T06:47:54.940Z,1005.6
2018-06-11T06:48:54.933Z,1005.54
2018-06-11T06:49:54.921Z,1005.52
2018-06-11T06:50:54.910Z,1005.53
2018-06-11T06:51:54.901Z,1005.52
2018-06-11T06:52:55.096Z,1005.51
2018-06-11T06:53:54.881Z,1005.53
2018-06-11T06:54:54.869Z,1005.56
2018-06-11T06:55:54.861Z,1005.55
2018-06-11T06:56:54.851Z,1005.53
2018-06-11T06:57:54.840Z,1005.56
2018-06-11T06:58:54.831Z,1005.59
2018-06-11T06:59:54.822Z,1005.55
2018-06-11T07:00:54.813Z,1005.55
2018-06-11T07:01:54.801Z,1005.56
2018-06-11T07:02:54.790Z,1005.56
2018-06-11T07:03:54.781Z,1005.59
2018-06-11T07:04:54.773Z,1005.57
2018-06-11T07:05:54.764Z,1005.57
2018-06-11T07:06:54.753Z,1005.57
2018-06-11T07:07:54.744Z,1005.56
2018-06-11T07:08:54.733Z,1005.57
2018-06-11T07:09:54.724Z,1005.6
2018-06-11T07:10:54.715Z,1005.57
2018-06-11T07:11:54.703Z,1005.57
2018-06-11T07:12:54.694Z,1005.57
2018-06-11T07:13:54.686Z,1005.57
2018-06-11T07:14:54.673Z,1005.53
2018-06-11T07:15:54.666Z,1005.53
2018-06-11T07:16:54.657Z,1005.55
2018-06-11T07:17:54.647Z,1005.66
2018-06-11T07:18:54.638Z,1005.67
2018-06-11T07:19:54.628Z,1005.61
2018-06-11T07:20:54.618Z,1005.63
2018-06-11T07:21:54.611Z,1005.65
2018-06-11T07:22:54.600Z,1005.64
2018-06-11T07:23:54.599Z,1005.66
2018-06-11T07:24:54.583Z,1005.62
2018-06-11T07:25:54.571Z,1005.7
2018-06-11T07:26:54.562Z,1005.67
2018-06-11T07:27:54.550Z,1005.67
2018-06-11T07:28:54.542Z,1005.69
2018-06-11T07:29:54.540Z,1005.61
2018-06-11T07:30:54.526Z,1005.57
2018-06-11T07:31:54.517Z,1005.57
2018-06-11T07:32:54.507Z,1005.68
2018-06-11T07:33:54.507Z,1005.65
2018-06-11T07:34:54.536Z,1005.62
2018-06-11T07:35:54.481Z,1005.62
2018-06-11T07:36:54.470Z,1005.57
2018-06-11T07:37:54.461Z,1005.57
2018-06-11T07:38:54.453Z,1005.57
2018-06-11T07:39:54.445Z,1005.59
2018-06-11T07:40:54.437Z,1005.58
2018-06-11T07:41:54.429Z,1005.73
2018-06-11T07:42:54.421Z,1005.59
2018-06-11T07:43:54.409Z,1005.61
2018-06-11T07:44:54.403Z,1005.59
2018-06-11T07:45:54.391Z,1005.59
2018-06-11T07:46:54.383Z,1005.66
2018-06-11T07:47:54.375Z,1005.73
2018-06-11T07:48:54.368Z,1005.66
2018-06-11T07:49:54.361Z,1005.65
2018-06-11T07:50:54.365Z,1005.65
2018-06-11T07:51:54.350Z,1005.67
2018-06-11T07:52:54.339Z,1005.68
2018-06-11T07:53:54.337Z,1005.69
2018-06-11T07:54:54.323Z,1005.72
2018-06-11T07:55:54.316Z,1005.73
2018-06-11T07:56:54.303Z,1005.79
2018-06-11T07:57:54.296Z,1005.79
2018-06-11T07:58:54.288Z,1005.76
2018-06-11T07:59:54.285Z,1005.8
2018-06-11T08:00:54.270Z,1005.82
2018-06-11T08:01:54.263Z,1005.78
2018-06-11T08:02:54.263Z,1005.83
2018-06-11T08:03:54.245Z,1005.82
2018-06-11T08:04:54.240Z,1005.84
2018-06-11T08:05:54.229Z,1005.79
2018-06-11T08:06:54.222Z,1005.82
2018-06-11T08:07:54.216Z,1005.78
2018-06-11T08:08:54.203Z,1005.78
2018-06-11T08:09:54.201Z,1005.8
2018-06-11T08:10:54.190Z,1005.76
2018-06-11T08:11:54.179Z,1005.76
2018-06-11T08:12:54.174Z,1005.78
2018-06-11T08:13:54.163Z,1005.8
2018-06-11T08:14:54.154Z,1005.77
2018-06-11T08:15:54.148Z,1005.75
2018-06-11T08:16:54.140Z,1005.72
2018-06-11T08:17:54.135Z,1005.68
2018-06-11T08:18:54.121Z,1005.66
2018-06-11T08:19:54.113Z,1005.62
2018-06-11T08:20:54.136Z,1005.59
2018-06-11T08:21:54.097Z,1005.55
2018-06-11T08:22:54.091Z,1005.53
2018-06-11T08:23:54.082Z,1005.59
2018-06-11T08:24:54.074Z,1005.51
2018-06-11T08:25:54.072Z,1005.48
2018-06-11T08:26:54.063Z,1005.46
2018-06-11T08:27:54.052Z,1005.49
2018-06-11T08:28:54.049Z,1005.48
2018-06-11T08:29:54.034Z,1005.47
2018-06-11T08:30:54.036Z,1005.49
2018-06-11T08:31:54.020Z,1005.44
2018-06-11T08:32:54.012Z,1005.48
2018-06-11T08:33:54.010Z,1005.44
2018-06-11T08:34:54.000Z,1005.46
2018-06-11T08:35:53.991Z,1005.48
2018-06-11T08:36:53.983Z,1005.47
2018-06-11T08:37:53.979Z,1005.45
2018-06-11T08:38:53.972Z,1005.46
2018-06-11T08:39:53.962Z,1005.47
2018-06-11T08:40:53.954Z,1005.49
2018-06-11T08:41:53.947Z,1005.51
2018-06-11T08:42:53.942Z,1005.51
2018-06-11T08:43:53.934Z,1005.57
2018-06-11T08:44:53.927Z,1005.52
2018-06-11T08:45:53.923Z,1005.55
2018-06-11T08:46:53.912Z,1005.55
2018-06-11T08:47:53.904Z,1005.57
2018-06-11T08:48:53.898Z,1005.54
2018-06-11T08:49:53.890Z,1005.6
2018-06-11T08:50:53.882Z,1005.62
2018-06-11T08:51:53.877Z,1005.64
2018-06-11T08:52:54.072Z,1005.69
2018-06-11T08:53:53.861Z,1005.71
2018-06-11T08:54:53.855Z,1005.72
2018-06-11T08:55:53.847Z,1005.74
2018-06-11T08:56:53.844Z,1005.71
2018-06-11T08:57:53.832Z,1005.68
2018-06-11T08:58:53.828Z,1005.68
2018-06-11T08:59:53.840Z,1005.92
2018-06-11T09:00:53.814Z,1005.61
2018-06-11T09:01:53.809Z,1005.64
2018-06-11T09:02:53.801Z,1006.05
2018-06-11T09:03:53.797Z,1006.04
2018-06-11T09:04:53.794Z,1005.52
2018-06-11T09:05:53.787Z,1005.52
2018-06-11T09:06:53.778Z,1005.44
2018-06-11T09:07:53.778Z,1006.06
2018-06-11T09:08:53.774Z,1006.02
2018-06-11T09:09:53.765Z,1005.54
2018-06-11T09:10:53.761Z,1005.73
2018-06-11T09:11:53.758Z,1005.93
2018-06-11T09:12:53.753Z,1005.4
2018-06-11T09:13:53.749Z,1005.4
2018-06-11T09:14:53.747Z,1005.33
2018-06-11T09:15:53.749Z,1005.32
2018-06-11T09:16:53.744Z,1005.32
2018-06-11T09:17:53.749Z,1005.52
2018-06-11T09:18:53.733Z,1005.42
2018-06-11T09:19:53.734Z,1005.32
2018-06-11T09:20:53.726Z,1005.34
2018-06-11T09:21:53.730Z,1005.32
2018-06-11T09:22:53.721Z,1005.4
2018-06-11T09:23:53.716Z,1005.39
2018-06-11T09:24:53.713Z,1005.43
2018-06-11T09:25:53.710Z,1005.43
2018-06-11T09:26:53.709Z,1005.43
2018-06-11T09:27:53.702Z,1005.6
2018-06-11T09:28:53.706Z,1005.59
2018-06-11T09:29:53.695Z,1005.48
2018-06-11T09:30:53.779Z,1005.63
2018-06-11T09:31:53.691Z,1005.76
2018-06-11T09:32:53.686Z,1005.78
2018-06-11T09:33:53.679Z,1006.1
2018-06-11T09:34:53.679Z,1005.9
2018-06-11T09:35:53.673Z,1006.13
2018-06-11T09:36:53.669Z,1005.87
2018-06-11T09:37:53.667Z,1006.13
2018-06-11T09:38:53.667Z,1005.5
2018-06-11T09:39:53.673Z,1005.54
2018-06-11T09:40:53.665Z,1005.55
2018-06-11T09:41:53.663Z,1005.51
2018-06-11T09:42:53.653Z,1005.56
2018-06-11T09:43:53.727Z,1005.57
2018-06-11T09:44:53.650Z,1005.6
2018-06-11T09:45:53.650Z,1005.58
2018-06-11T09:46:53.643Z,1005.6
2018-06-11T09:47:53.692Z,1005.56
2018-06-11T09:48:53.637Z,1005.61
2018-06-11T09:49:53.639Z,1005.64
2018-06-11T09:50:53.628Z,1005.69
2018-06-11T09:51:53.626Z,1005.65
2018-06-11T09:52:53.626Z,1005.64
2018-06-11T09:53:53.620Z,1005.63
2018-06-11T09:54:53.618Z,1005.7
2018-06-11T09:55:53.616Z,1005.63
2018-06-11T09:56:53.608Z,1005.62
2018-06-11T09:57:53.601Z,1005.65
2018-06-11T09:58:53.601Z,1005.67
2018-06-11T09:59:53.595Z,1005.61
2018-06-11T10:00:53.591Z,1005.67
2018-06-11T10:01:53.591Z,1005.69
2018-06-11T10:02:53.591Z,1005.73
2018-06-11T10:03:53.579Z,1005.69
2018-06-11T10:04:53.573Z,1005.86
2018-06-11T10:05:53.568Z,1005.74
2018-06-11T10:06:53.568Z,1005.7
2018-06-11T10:07:53.560Z,1005.71
2018-06-11T10:08:53.560Z,1005.74
2018-06-11T10:09:53.554Z,1006.01
2018-06-11T10:10:53.548Z,1005.74
2018-06-11T10:11:53.543Z,1005.67
2018-06-11T10:12:53.539Z,1005.63
2018-06-11T10:13:53.537Z,1005.65
2018-06-11T10:14:53.536Z,1005.68
2018-06-11T10:15:53.533Z,1005.88
2018-06-11T10:16:53.526Z,1005.68
2018-06-11T10:17:53.521Z,1005.73
2018-06-11T10:18:53.515Z,1005.81
2018-06-11T10:19:53.512Z,1005.85
2018-06-11T10:20:53.508Z,1005.9
2018-06-11T10:21:53.509Z,1005.89
2018-06-11T10:22:53.504Z,1005.98
2018-06-11T10:23:53.500Z,1005.92
2018-06-11T10:24:53.542Z,1006.04
2018-06-11T10:25:53.494Z,1005.96
2018-06-11T10:26:53.493Z,1005.95
2018-06-11T10:27:53.500Z,1005.97
2018-06-11T10:28:53.491Z,1005.99
2018-06-11T10:29:53.490Z,1006.02
2018-06-11T10:30:53.497Z,1006.07
2018-06-11T10:31:53.494Z,1006.04
2018-06-11T10:32:53.495Z,1006.07
2018-06-11T10:33:53.494Z,1006.01
2018-06-11T10:34:53.496Z,1006
2018-06-11T10:35:53.498Z,1005.99
2018-06-11T10:36:53.501Z,1005.98
2018-06-11T10:37:53.504Z,1005.99
2018-06-11T10:38:53.506Z,1005.9
2018-06-11T10:39:53.510Z,1005.89
2018-06-11T10:40:53.511Z,1005.9
2018-06-11T10:41:53.514Z,1005.92
2018-06-11T10:42:53.519Z,1005.87
2018-06-11T10:43:53.522Z,1005.83
2018-06-11T10:44:53.525Z,1005.74
2018-06-11T10:45:53.531Z,1005.68
2018-06-11T10:46:53.531Z,1005.66
2018-06-11T10:47:53.536Z,1005.62
2018-06-11T10:48:53.542Z,1005.56
2018-06-11T10:49:53.545Z,1005.54
2018-06-11T10:50:53.548Z,1005.57
2018-06-11T10:51:53.552Z,1005.55
2018-06-11T10:52:53.761Z,1005.55
2018-06-11T10:53:53.561Z,1005.55
2018-06-11T10:54:53.566Z,1005.54
2018-06-11T10:55:53.571Z,1005.49
2018-06-11T10:56:53.580Z,1005.52
2018-06-11T10:57:53.580Z,1005.51
2018-06-11T10:58:53.589Z,1005.49
2018-06-11T10:59:53.592Z,1005.46
2018-06-11T11:00:53.596Z,1005.45
2018-06-11T11:01:53.607Z,1005.39
2018-06-11T11:02:53.609Z,1005.41
2018-06-11T11:03:53.615Z,1005.37
2018-06-11T11:04:53.619Z,1005.33
2018-06-11T11:05:53.626Z,1005.29
2018-06-11T11:06:53.635Z,1005.35
2018-06-11T11:07:53.643Z,1005.32
2018-06-11T11:08:53.641Z,1005.35
2018-06-11T11:09:53.649Z,1005.4
2018-06-11T11:10:53.653Z,1005.38
2018-06-11T11:11:53.658Z,1005.4
2018-06-11T11:12:53.670Z,1005.34
2018-06-11T11:13:53.675Z,1005.37
2018-06-11T11:14:53.679Z,1005.32
2018-06-11T11:15:53.685Z,1005.32
2018-06-11T11:16:53.694Z,1005.34
2018-06-11T11:17:53.694Z,1005.33
2018-06-11T11:18:53.702Z,1005.31
2018-06-11T11:19:53.712Z,1005.28
2018-06-11T11:20:53.713Z,1005.27
2018-06-11T11:21:53.759Z,1005.32
2018-06-11T11:22:53.728Z,1005.34
2018-06-11T11:23:53.736Z,1005.29
2018-06-11T11:24:53.741Z,1005.32
2018-06-11T11:25:53.743Z,1005.33
2018-06-11T11:26:53.751Z,1005.26
2018-06-11T11:27:53.757Z,1005.22
2018-06-11T11:28:53.764Z,1005.21
2018-06-11T11:29:53.768Z,1005.19
2018-06-11T11:30:53.774Z,1005.24
2018-06-11T11:31:53.779Z,1005.23
2018-06-11T11:32:53.788Z,1005.27
2018-06-11T11:33:53.793Z,1005.21
2018-06-11T11:34:53.796Z,1005.22
2018-06-11T11:35:53.801Z,1005.17
2018-06-11T11:36:53.810Z,1005.17
2018-06-11T11:37:53.819Z,1005.15
2018-06-11T11:38:53.823Z,1005.14
2018-06-11T11:39:53.829Z,1005.11
2018-06-11T11:40:53.835Z,1005.08
2018-06-11T11:41:53.839Z,1005.07
2018-06-11T11:42:53.844Z,1005.06
2018-06-11T11:43:53.851Z,1005.07
2018-06-11T11:44:53.854Z,1005.08
2018-06-11T11:45:53.866Z,1005.07
2018-06-11T11:46:53.865Z,1005.09
2018-06-11T11:47:53.872Z,1005.07
2018-06-11T11:48:53.878Z,1005.03
2018-06-11T11:49:53.884Z,1004.98
2018-06-11T11:50:53.892Z,1005
2018-06-11T11:51:53.896Z,1004.88
2018-06-11T11:52:53.900Z,1004.88
2018-06-11T11:53:53.908Z,1004.86
2018-06-11T11:54:53.913Z,1004.9
2018-06-11T11:55:53.919Z,1004.92
2018-06-11T11:56:53.925Z,1004.93
2018-06-11T11:57:53.928Z,1004.92
2018-06-11T11:58:53.934Z,1004.86
2018-06-11T11:59:53.940Z,1004.9
2018-06-11T12:00:53.952Z,1004.91
2018-06-11T12:01:53.951Z,1004.91
2018-06-11T12:02:53.960Z,1004.82
2018-06-11T12:03:53.964Z,1004.85
2018-06-11T12:04:53.966Z,1004.77
2018-06-11T12:05:53.975Z,1004.72
2018-06-11T12:06:53.980Z,1004.74
2018-06-11T12:07:53.987Z,1004.8
2018-06-11T12:08:53.992Z,1004.74